Time;durP1;ratioP1;P1;durP2;ratioP2;P2;SDS_P1;SDS_P2;PMS_P1;PMS_P2;Temp;Humidity;BMP_temperature;BMP_pressure;BME280_temperature;BME280_humidity;BME280_pressure;Samples;Min_cycle;Max_cycle;Signal;HPM_P1;HPM_P2
2022/08/09 00:00:27;;;;;;;2.03;1.20;;;18.70;95.30;;;;;;5046106;28;20614;-34
2022/08/09 00:02:52;;;;;;;2.85;1.58;;;18.70;95.30;;;;;;5044710;28;20496;-34
2022/08/09 00:05:20;;;;;;;2.28;1.60;;;18.70;95.40;;;;;;5046901;28;20041;-39
2022/08/09 00:07:46;;;;;;;3.03;1.50;;;18.60;95.50;;;;;;5045676;28;20025;-34
2022/08/09 00:10:11;;;;;;;1.98;1.50;;;18.60;95.60;;;;;;5045122;28;20048;-34
2022/08/09 00:12:37;;;;;;;1.50;1.40;;;18.60;95.60;;;;;;5045419;28;20013;-33
2022/08/09 00:15:03;;;;;;;2.38;1.52;;;18.60;95.70;;;;;;5044609;28;20034;-34
2022/08/09 00:17:28;;;;;;;1.58;1.20;;;18.50;95.60;;;;;;5045739;28;20426;-33
2022/08/09 00:19:54;;;;;;;4.13;1.80;;;18.50;95.70;;;;;;5045869;28;20421;-34
2022/08/09 00:22:19;;;;;;;1.80;1.40;;;18.50;95.80;;;;;;5045038;28;20036;-34
2022/08/09 00:24:45;;;;;;;2.78;1.50;;;18.40;95.80;;;;;;5045080;28;20045;-34
2022/08/09 00:27:10;;;;;;;2.58;1.63;;;18.40;95.80;;;;;;5045573;28;20025;-34
2022/08/09 00:29:36;;;;;;;2.03;1.40;;;18.40;95.90;;;;;;5044346;28;20385;-34
2022/08/09 00:32:01;;;;;;;2.33;1.70;;;18.30;96.00;;;;;;5045381;28;20053;-34
2022/08/09 00:34:27;;;;;;;2.55;1.60;;;18.30;96.10;;;;;;5045499;28;20028;-33
2022/08/09 00:36:52;;;;;;;1.55;1.23;;;18.30;96.10;;;;;;5044525;28;20025;-33
2022/08/09 00:39:18;;;;;;;2.80;1.65;;;18.30;96.10;;;;;;5045378;28;20021;-34
2022/08/09 00:41:44;;;;;;;2.95;1.70;;;18.20;96.20;;;;;;5045425;28;20547;-33
2022/08/09 00:44:10;;;;;;;2.33;1.40;;;18.20;96.20;;;;;;5044509;28;20044;-34
2022/08/09 00:46:35;;;;;;;1.30;1.20;;;18.20;96.20;;;;;;5045343;28;20044;-35
2022/08/09 00:49:01;;;;;;;1.85;1.40;;;18.20;96.20;;;;;;5045250;28;20029;-35
2022/08/09 00:51:27;;;;;;;2.40;1.63;;;18.20;96.30;;;;;;5044455;28;20749;-35
2022/08/09 00:53:52;;;;;;;2.35;1.63;;;18.20;96.30;;;;;;5045085;28;20025;-34
2022/08/09 00:56:18;;;;;;;2.00;1.10;;;18.20;96.30;;;;;;5045830;28;20025;-34
2022/08/09 00:58:43;;;;;;;1.33;1.23;;;18.10;96.40;;;;;;5044383;28;20125;-34
2022/08/09 01:01:17;;;;;;;1.83;1.40;;;18.10;96.40;;;;;;5045323;28;20017;-33
2022/08/09 01:03:55;;;;;;;3.08;1.50;;;18.10;96.40;;;;;;5044960;28;20033;-34
2022/08/09 01:06:35;;;;;;;1.98;1.30;;;18.10;96.40;;;;;;5044646;28;20013;-34
2022/08/09 01:09:23;;;;;;;3.45;1.50;;;18.10;96.40;;;;;;5044496;28;20459;-34
2022/08/09 01:11:58;;;;;;;1.85;1.27;;;18.00;96.50;;;;;;5044549;28;20043;-33
2022/08/09 01:14:29;;;;;;;1.70;1.30;;;18.00;96.50;;;;;;5045099;28;20014;-33
2022/08/09 01:17:01;;;;;;;2.40;1.50;;;18.00;96.60;;;;;;5045336;28;20033;-35
2022/08/09 01:19:39;;;;;;;4.82;2.10;;;17.90;96.70;;;;;;5044350;28;20053;-34
2022/08/09 01:22:29;;;;;;;1.52;1.42;;;17.90;96.70;;;;;;5045890;28;20067;-33
2022/08/09 01:25:22;;;;;;;2.83;1.60;;;17.90;96.80;;;;;;5045473;28;20076;-33
2022/08/09 01:27:51;;;;;;;2.17;1.52;;;17.90;96.90;;;;;;5044720;28;20797;-33
2022/08/09 01:30:18;;;;;;;1.65;1.40;;;17.80;96.80;;;;;;5045113;28;20040;-34
2022/08/09 01:32:45;;;;;;;3.63;2.10;;;17.80;96.90;;;;;;5043992;28;20024;-33
2022/08/09 01:35:29;;;;;;;3.22;1.90;;;17.80;97.10;;;;;;5044787;28;20377;-34
2022/08/09 01:38:00;;;;;;;3.17;2.00;;;17.70;97.20;;;;;;5044613;28;20404;-34
2022/08/09 01:40:27;;;;;;;3.40;1.70;;;17.70;97.30;;;;;;5047555;28;20469;-34
2022/08/09 01:42:54;;;;;;;2.25;1.60;;;17.60;97.30;;;;;;5048366;28;20036;-33
2022/08/09 01:45:21;;;;;;;1.85;1.70;;;17.60;97.50;;;;;;5048510;28;20025;-33
2022/08/09 01:47:47;;;;;;;3.25;2.00;;;17.50;97.50;;;;;;5047246;28;20043;-33
2022/08/09 01:50:14;;;;;;;2.63;2.10;;;17.50;97.80;;;;;;5048394;28;20032;-33
2022/08/09 01:52:42;;;;;;;2.22;2.03;;;17.40;98.00;;;;;;5048191;28;20017;-34
2022/08/09 01:55:09;;;;;;;3.72;2.00;;;17.40;98.10;;;;;;5047219;28;20079;-33
2022/08/09 01:57:44;;;;;;;2.80;2.20;;;17.40;98.20;;;;;;5037558;28;20041;-33
2022/08/09 02:00:10;;;;;;;2.20;2.05;;;17.40;98.30;;;;;;5048130;28;20037;-34
2022/08/09 02:02:40;;;;;;;3.88;2.80;;;17.40;98.30;;;;;;5046889;28;20057;-34
2022/08/09 02:05:09;;;;;;;4.10;2.70;;;17.40;98.60;;;;;;5047990;28;20723;-34
2022/08/09 02:07:54;;;;;;;4.22;2.55;;;17.40;98.70;;;;;;5046908;28;20751;-33
2022/08/09 02:10:24;;;;;;;2.85;2.45;;;17.40;98.80;;;;;;5047952;28;20508;-34
2022/08/09 02:12:54;;;;;;;2.40;2.20;;;17.40;98.90;;;;;;5048101;28;20033;-34
2022/08/09 02:15:22;;;;;;;2.30;2.10;;;17.30;98.90;;;;;;5047517;28;20024;-35
2022/08/09 02:17:50;;;;;;;2.85;2.22;;;17.30;98.90;;;;;;5043456;28;20096;-34
2022/08/09 02:20:16;;;;;;;3.63;2.28;;;17.30;99.00;;;;;;5048315;28;20095;-33
2022/08/09 02:22:49;;;;;;;3.60;2.70;;;17.30;99.00;;;;;;5046670;28;20033;-33
2022/08/09 02:25:18;;;;;;;4.85;2.25;;;17.30;99.10;;;;;;5047306;28;20495;-33
2022/08/09 02:27:52;;;;;;;2.67;2.22;;;17.20;99.10;;;;;;5047067;28;20164;-34
2022/08/09 02:30:18;;;;;;;4.30;2.35;;;17.30;99.20;;;;;;5047207;28;20412;-32
2022/08/09 02:32:45;;;;;;;2.20;2.00;;;17.20;99.20;;;;;;5046692;28;20032;-34
2022/08/09 02:35:19;;;;;;;2.47;2.28;;;17.20;99.30;;;;;;5048173;28;20070;-34
2022/08/09 02:37:48;;;;;;;3.08;2.58;;;17.20;99.30;;;;;;5046253;28;20114;-34
2022/08/09 02:40:17;;;;;;;2.20;2.00;;;17.20;99.30;;;;;;5048272;28;20773;-33
2022/08/09 02:42:46;;;;;;;3.67;2.70;;;17.20;99.40;;;;;;5046884;28;20036;-33
2022/08/09 02:45:28;;;;;;;4.05;2.63;;;17.10;99.40;;;;;;5048114;28;20812;-34
2022/08/09 02:47:59;;;;;;;3.95;2.97;;;17.10;99.80;;;;;;5047181;28;20025;-33
2022/08/09 02:50:33;;;;;;;3.85;2.33;;;17.10;99.70;;;;;;5045707;28;20028;-34
2022/08/09 02:53:03;;;;;;;3.28;2.97;;;17.10;99.70;;;;;;5047115;28;20113;-33
2022/08/09 02:55:31;;;;;;;3.97;2.70;;;17.10;99.80;;;;;;5046761;28;20090;-34
2022/08/09 02:57:59;;;;;;;4.68;2.85;;;17.10;99.80;;;;;;5045876;28;20531;-32
2022/08/09 03:00:26;;;;;;;3.15;2.90;;;17.00;99.90;;;;;;5046917;28;20040;-42
2022/08/09 03:02:54;;;;;;;4.20;2.60;;;17.00;99.90;;;;;;5045403;28;20060;-43
2022/08/09 03:05:21;;;;;;;3.17;2.40;;;16.90;99.90;;;;;;5036335;28;20033;-44
2022/08/09 03:07:49;;;;;;;3.83;2.90;;;16.90;99.90;;;;;;5042138;28;20853;-45
2022/08/09 03:10:15;;;;;;;3.00;2.80;;;16.90;99.90;;;;;;5046730;28;20032;-43
2022/08/09 03:12:43;;;;;;;4.28;3.33;;;16.90;99.90;;;;;;5045426;28;20021;-43
2022/08/09 03:15:10;;;;;;;3.40;3.10;;;16.90;99.90;;;;;;5046628;28;20468;-43
2022/08/09 03:17:36;;;;;;;3.92;2.92;;;16.90;99.90;;;;;;5046358;28;20025;-42
2022/08/09 03:20:04;;;;;;;3.25;3.03;;;16.80;99.90;;;;;;5046046;28;20476;-43
2022/08/09 03:22:31;;;;;;;4.63;3.17;;;16.80;99.90;;;;;;5046264;28;20043;-43
2022/08/09 03:24:58;;;;;;;3.55;2.40;;;16.80;99.90;;;;;;5045385;28;20090;-43
2022/08/09 03:27:25;;;;;;;3.63;2.85;;;16.80;99.90;;;;;;5046597;28;20028;-43
2022/08/09 03:29:52;;;;;;;4.60;3.00;;;16.80;99.90;;;;;;5046199;28;20664;-43
2022/08/09 03:32:18;;;;;;;5.95;3.60;;;16.70;99.90;;;;;;5045868;28;20033;-44
2022/08/09 03:34:44;;;;;;;2.75;2.53;;;16.70;99.90;;;;;;5045692;28;20109;-43
2022/08/09 03:37:10;;;;;;;4.53;3.45;;;16.70;99.90;;;;;;5046256;28;20128;-43
2022/08/09 03:39:35;;;;;;;3.92;3.08;;;16.70;99.90;;;;;;5044863;28;20586;-43
2022/08/09 03:42:01;;;;;;;3.03;2.80;;;16.70;99.90;;;;;;5046245;28;20021;-44
2022/08/09 03:44:28;;;;;;;4.15;3.05;;;16.70;99.90;;;;;;5045632;28;20488;-45
2022/08/09 03:46:55;;;;;;;3.97;2.83;;;16.60;99.90;;;;;;5045317;28;20100;-43
2022/08/09 03:49:23;;;;;;;3.88;3.22;;;16.60;99.90;;;;;;5046209;28;20380;-44
2022/08/09 03:51:53;;;;;;;4.10;3.53;;;16.60;99.90;;;;;;5045406;28;20029;-43
2022/08/09 03:54:19;;;;;;;3.72;3.30;;;16.50;99.90;;;;;;5045218;28;20503;-43
2022/08/09 03:56:45;;;;;;;4.20;3.17;;;16.50;99.90;;;;;;5045773;28;20079;-43
2022/08/09 03:59:13;;;;;;;3.03;2.70;;;16.50;99.90;;;;;;5046008;28;20021;-42
2022/08/09 04:01:40;;;;;;;3.53;3.05;;;16.50;99.90;;;;;;5044150;28;20127;-42
2022/08/09 04:04:06;;;;;;;4.15;3.03;;;16.50;99.90;;;;;;5045368;28;20040;-42
2022/08/09 04:06:32;;;;;;;5.45;3.35;;;16.50;99.90;;;;;;5045463;28;20092;-44
2022/08/09 04:09:01;;;;;;;3.72;3.22;;;16.40;99.90;;;;;;5045196;28;20037;-43
2022/08/09 04:11:55;;;;;;;3.85;3.33;;;16.40;99.90;;;;;;5046136;28;20056;-43
2022/08/09 04:14:21;;;;;;;4.50;3.60;;;16.40;99.90;;;;;;5045035;28;20103;-42
2022/08/09 04:16:47;;;;;;;5.28;3.17;;;16.40;99.90;;;;;;5042166;28;20032;-42
2022/08/09 04:19:12;;;;;;;4.05;3.42;;;16.40;99.90;;;;;;5045927;28;20388;-43
2022/08/09 04:21:41;;;;;;;5.80;4.68;;;16.30;99.90;;;;;;5044582;28;20028;-43
2022/08/09 04:24:07;;;;;;;5.25;3.97;;;16.30;99.90;;;;;;5046047;28;20033;-43
2022/08/09 04:26:33;;;;;;;4.43;4.03;;;16.30;99.90;;;;;;5045067;28;20033;-42
2022/08/09 04:28:58;;;;;;;5.28;4.13;;;16.30;99.90;;;;;;5045258;28;20131;-42
2022/08/09 04:31:25;;;;;;;5.25;3.95;;;16.30;99.90;;;;;;5045814;28;20860;-43
2022/08/09 04:33:51;;;;;;;4.95;4.45;;;16.30;99.90;;;;;;5046258;28;20036;-45
2022/08/09 04:36:16;;;;;;;4.18;3.60;;;16.20;99.90;;;;;;5045697;28;20021;-42
2022/08/09 04:38:42;;;;;;;5.00;4.50;;;16.30;99.90;;;;;;5045706;28;20065;-44
2022/08/09 04:41:07;;;;;;;4.63;3.67;;;16.30;99.90;;;;;;5045949;28;20103;-43
2022/08/09 04:43:33;;;;;;;4.63;4.18;;;16.20;99.90;;;;;;5045064;28;20492;-43
2022/08/09 04:46:00;;;;;;;4.95;4.05;;;16.20;99.90;;;;;;5045576;28;20116;-42
2022/08/09 04:48:25;;;;;;;4.60;4.20;;;16.20;99.90;;;;;;5045763;28;20013;-43
2022/08/09 04:50:51;;;;;;;4.70;3.75;;;16.20;99.90;;;;;;5045270;28;20028;-43
2022/08/09 04:53:16;;;;;;;5.85;4.28;;;16.20;99.90;;;;;;5046000;28;20547;-43
2022/08/09 04:55:42;;;;;;;5.30;4.22;;;16.30;99.90;;;;;;5045936;28;20044;-43
2022/08/09 04:58:08;;;;;;;5.57;4.40;;;16.30;99.90;;;;;;5044770;28;20074;-42
2022/08/09 05:00:33;;;;;;;6.68;4.53;;;16.30;99.90;;;;;;5045501;28;20535;-42
2022/08/09 05:03:01;;;;;;;5.00;4.50;;;16.30;99.90;;;;;;5045072;28;20465;-43
2022/08/09 05:05:26;;;;;;;4.05;3.75;;;16.20;99.90;;;;;;5045060;28;20037;-43
2022/08/09 05:07:52;;;;;;;7.45;4.65;;;16.30;99.90;;;;;;5044982;28;20032;-43
2022/08/09 05:10:18;;;;;;;6.30;4.78;;;16.30;99.90;;;;;;5045317;28;20025;-43
2022/08/09 05:12:43;;;;;;;5.57;4.25;;;16.30;99.90;;;;;;5045675;28;20021;-44
2022/08/09 05:15:09;;;;;;;4.55;4.15;;;16.30;99.90;;;;;;5048783;28;20372;-44
2022/08/09 05:17:34;;;;;;;4.72;3.90;;;16.30;99.90;;;;;;5048081;28;20802;-44
2022/08/09 05:20:00;;;;;;;4.97;4.22;;;16.40;99.90;;;;;;5049227;28;20017;-43
2022/08/09 05:22:25;;;;;;;4.25;3.55;;;16.40;99.90;;;;;;5048514;28;20752;-43
2022/08/09 05:24:51;;;;;;;4.32;3.30;;;16.40;99.90;;;;;;5048138;28;20103;-43
2022/08/09 05:27:16;;;;;;;5.47;4.10;;;16.40;99.90;;;;;;5048308;28;20025;-43
2022/08/09 05:29:42;;;;;;;4.57;4.10;;;16.40;99.90;;;;;;5048365;28;20079;-44
2022/08/09 05:32:08;;;;;;;5.30;4.50;;;16.40;99.90;;;;;;5048024;28;20021;-43
2022/08/09 05:34:33;;;;;;;4.72;4.18;;;16.50;99.90;;;;;;5048321;28;20162;-42
2022/08/09 05:37:05;;;;;;;4.30;3.67;;;16.50;99.90;;;;;;5048513;28;20029;-44
2022/08/09 05:39:31;;;;;;;5.43;4.32;;;16.50;99.90;;;;;;5047777;28;20491;-43
2022/08/09 05:41:57;;;;;;;4.10;3.70;;;16.60;99.90;;;;;;5048509;28;20044;-42
2022/08/09 05:44:22;;;;;;;4.68;4.25;;;16.60;99.90;;;;;;5044782;28;20548;-44
2022/08/09 05:46:48;;;;;;;5.57;4.32;;;16.60;99.90;;;;;;5046773;28;20032;-44
2022/08/09 05:49:13;;;;;;;5.63;4.25;;;16.60;99.90;;;;;;5045164;28;20025;-43
2022/08/09 05:51:39;;;;;;;4.53;3.78;;;16.70;99.90;;;;;;5046703;28;20049;-43
2022/08/09 05:54:04;;;;;;;5.45;4.93;;;16.70;99.90;;;;;;5046383;28;20106;-43
2022/08/09 05:56:30;;;;;;;7.53;5.03;;;16.70;99.90;;;;;;5047260;28;20049;-44
2022/08/09 05:58:58;;;;;;;4.88;3.75;;;16.70;99.90;;;;;;5047158;28;20025;-42
2022/08/09 06:01:25;;;;;;;4.47;4.07;;;16.80;99.90;;;;;;5046495;28;20045;-42
2022/08/09 06:03:51;;;;;;;4.80;4.20;;;16.80;99.90;;;;;;5047302;28;20054;-42
2022/08/09 06:06:17;;;;;;;5.10;4.10;;;16.80;99.90;;;;;;5047395;28;20025;-43
2022/08/09 06:08:42;;;;;;;4.38;3.97;;;16.90;99.90;;;;;;5046123;28;20025;-43
2022/08/09 06:11:08;;;;;;;4.00;3.60;;;16.90;99.90;;;;;;5047063;28;20056;-44
2022/08/09 06:13:34;;;;;;;4.35;3.88;;;17.00;99.90;;;;;;5045812;28;20100;-44
2022/08/09 06:16:01;;;;;;;4.03;3.60;;;17.00;99.90;;;;;;5047224;28;20473;-43
2022/08/09 06:18:26;;;;;;;4.70;3.70;;;17.00;99.90;;;;;;5047730;28;20028;-43
2022/08/09 06:20:55;;;;;;;4.38;3.97;;;17.10;99.90;;;;;;5043928;28;20769;-43
2022/08/09 06:23:21;;;;;;;4.75;3.40;;;17.10;99.90;;;;;;5046598;28;20028;-43
2022/08/09 06:25:48;;;;;;;4.13;3.00;;;17.20;99.90;;;;;;5044647;28;20037;-43
2022/08/09 06:28:13;;;;;;;2.85;2.35;;;17.20;99.90;;;;;;5046376;28;20021;-43
2022/08/09 06:30:41;;;;;;;3.00;2.45;;;17.20;99.90;;;;;;5046013;28;20443;-43
2022/08/09 06:33:07;;;;;;;4.25;2.85;;;17.30;99.90;;;;;;5027470;28;20464;-44
2022/08/09 06:35:33;;;;;;;3.47;2.72;;;17.30;99.90;;;;;;5040403;28;20115;-43
2022/08/09 06:37:58;;;;;;;3.35;2.95;;;17.40;99.90;;;;;;5046855;28;20017;-42
2022/08/09 06:40:24;;;;;;;3.63;2.55;;;17.50;99.90;;;;;;5046689;28;20116;-43
2022/08/09 06:42:49;;;;;;;2.80;2.50;;;17.50;99.90;;;;;;5046420;28;20032;-43
2022/08/09 06:45:15;;;;;;;4.78;2.90;;;17.50;99.90;;;;;;5047135;28;20048;-43
2022/08/09 06:47:41;;;;;;;2.63;2.40;;;17.60;99.90;;;;;;5046689;28;20061;-42
2022/08/09 06:50:07;;;;;;;5.00;2.47;;;17.60;99.90;;;;;;5046646;28;20436;-43
2022/08/09 06:52:33;;;;;;;2.35;1.85;;;17.70;99.90;;;;;;5045721;28;20028;-44
2022/08/09 06:54:58;;;;;;;2.45;1.95;;;17.80;99.90;;;;;;5046944;28;20179;-43
2022/08/09 06:57:24;;;;;;;3.30;1.80;;;17.80;99.90;;;;;;5045833;28;20025;-41
2022/08/09 06:59:50;;;;;;;3.22;1.88;;;17.90;99.90;;;;;;5046790;28;20021;-43
2022/08/09 07:02:15;;;;;;;2.72;2.10;;;18.00;99.90;;;;;;5047023;28;20068;-42
2022/08/09 07:04:41;;;;;;;2.50;1.70;;;18.00;99.90;;;;;;5046176;28;20067;-43
2022/08/09 07:07:06;;;;;;;1.73;1.30;;;18.10;99.90;;;;;;5046194;28;20052;-43
2022/08/09 07:09:32;;;;;;;1.67;1.50;;;18.20;99.90;;;;;;5046634;28;20029;-43
2022/08/09 07:11:57;;;;;;;1.70;1.48;;;18.30;99.90;;;;;;5046027;28;20029;-43
2022/08/09 07:14:23;;;;;;;2.85;1.55;;;18.30;99.90;;;;;;5046640;28;20041;-43
2022/08/09 07:16:48;;;;;;;1.45;1.30;;;18.40;99.90;;;;;;5045955;28;20099;-42
2022/08/09 07:19:15;;;;;;;4.38;1.60;;;18.50;99.90;;;;;;5045819;28;20087;-43
2022/08/09 07:21:41;;;;;;;2.17;1.63;;;18.50;99.90;;;;;;5046215;28;20032;-42
2022/08/09 07:24:07;;;;;;;1.80;1.70;;;18.60;99.90;;;;;;5045967;28;20041;-44
2022/08/09 07:26:33;;;;;;;1.85;1.23;;;18.70;99.90;;;;;;5045923;28;20023;-43
2022/08/09 07:28:59;;;;;;;2.38;1.52;;;18.70;99.90;;;;;;5045596;28;20499;-43
2022/08/09 07:31:25;;;;;;;1.77;1.25;;;18.80;99.90;;;;;;5045214;28;20013;-44
2022/08/09 07:33:50;;;;;;;3.03;1.40;;;18.90;99.90;;;;;;5045733;28;20488;-43
2022/08/09 07:36:17;;;;;;;1.10;1.00;;;19.00;99.90;;;;;;5045951;28;20473;-44
2022/08/09 07:38:42;;;;;;;2.35;1.27;;;19.00;99.90;;;;;;5045086;28;20112;-45
2022/08/09 07:41:08;;;;;;;2.97;1.50;;;19.10;99.90;;;;;;5045630;28;20116;-44
2022/08/09 07:43:34;;;;;;;2.97;1.63;;;19.20;99.90;;;;;;5045721;28;20152;-43
2022/08/09 07:45:59;;;;;;;2.28;1.23;;;19.20;99.90;;;;;;5045863;28;20045;-43
2022/08/09 07:48:25;;;;;;;2.42;1.30;;;19.30;99.90;;;;;;5045263;28;20060;-43
2022/08/09 07:50:51;;;;;;;3.83;1.38;;;19.40;99.90;;;;;;5045976;28;20130;-43
2022/08/09 07:53:16;;;;;;;2.35;1.50;;;19.40;99.90;;;;;;5045326;28;20025;-44
2022/08/09 07:55:42;;;;;;;2.00;1.23;;;19.40;99.90;;;;;;5046161;28;20037;-42
2022/08/09 07:58:07;;;;;;;2.80;1.58;;;19.50;99.90;;;;;;5045721;28;20464;-43
2022/08/09 08:00:33;;;;;;;2.50;1.40;;;19.50;99.90;;;;;;5045248;28;20452;-44
2022/08/09 08:03:00;;;;;;;1.42;1.25;;;19.60;99.90;;;;;;5045366;28;20068;-43
2022/08/09 08:05:27;;;;;;;2.42;1.45;;;19.60;99.90;;;;;;5045314;28;20061;-43
2022/08/09 08:07:53;;;;;;;1.75;1.10;;;19.60;99.80;;;;;;5044955;28;20432;-43
2022/08/09 08:10:20;;;;;;;1.38;0.90;;;19.70;99.20;;;;;;5045674;28;20029;-43
2022/08/09 08:12:46;;;;;;;2.05;1.25;;;19.80;99.10;;;;;;5044874;28;20017;-43
2022/08/09 08:15:18;;;;;;;1.02;0.80;;;19.90;98.60;;;;;;5033939;28;20052;-43
2022/08/09 08:17:45;;;;;;;0.93;0.70;;;19.90;98.60;;;;;;5045008;28;20714;-43
2022/08/09 08:20:11;;;;;;;1.02;0.80;;;19.90;97.80;;;;;;5044868;28;20035;-43
2022/08/09 08:22:36;;;;;;;1.50;0.80;;;20.00;98.00;;;;;;5045859;28;20455;-43
2022/08/09 08:25:02;;;;;;;0.82;0.70;;;20.00;97.60;;;;;;5045583;28;20041;-43
2022/08/09 08:27:29;;;;;;;1.33;0.90;;;20.10;97.10;;;;;;5044914;28;20024;-42
2022/08/09 08:29:54;;;;;;;1.95;1.00;;;20.10;96.90;;;;;;5044951;28;20025;-43
2022/08/09 08:32:21;;;;;;;1.33;0.80;;;20.20;96.40;;;;;;5045382;28;20059;-43
2022/08/09 08:34:47;;;;;;;2.42;1.10;;;20.20;96.30;;;;;;5042961;28;20048;-43
2022/08/09 08:37:12;;;;;;;1.27;0.90;;;20.30;95.90;;;;;;5045676;28;20029;-43
2022/08/09 08:39:38;;;;;;;2.00;1.10;;;20.30;95.60;;;;;;5044894;28;20029;-43
2022/08/09 08:42:04;;;;;;;1.17;0.95;;;20.40;95.60;;;;;;5044625;28;20029;-43
2022/08/09 08:44:34;;;;;;;1.73;1.00;;;20.40;95.80;;;;;;5044630;28;20029;-42
2022/08/09 08:47:01;;;;;;;2.03;1.00;;;20.40;95.80;;;;;;5045109;28;20029;-43
2022/08/09 08:49:27;;;;;;;0.60;0.60;;;20.50;95.50;;;;;;5047861;28;20029;-42
2022/08/09 08:51:53;;;;;;;1.25;0.80;;;20.60;95.40;;;;;;5048891;28;20021;-43
2022/08/09 08:54:19;;;;;;;1.25;0.93;;;20.60;95.10;;;;;;5049205;28;20519;-43
2022/08/09 08:56:45;;;;;;;1.25;0.80;;;20.60;94.70;;;;;;5048143;28;20021;-42
2022/08/09 08:59:12;;;;;;;2.25;0.98;;;20.70;94.70;;;;;;5048867;28;20052;-43
2022/08/09 09:01:41;;;;;;;1.40;0.90;;;20.70;94.70;;;;;;5048702;28;20087;-43
2022/08/09 09:04:09;;;;;;;1.88;0.65;;;20.80;94.70;;;;;;5048218;28;20062;-43
2022/08/09 09:06:37;;;;;;;0.90;0.63;;;20.90;94.60;;;;;;5048516;28;20362;-43
2022/08/09 09:09:04;;;;;;;1.90;0.85;;;20.90;94.60;;;;;;5048681;28;20025;-43
2022/08/09 09:11:31;;;;;;;0.63;0.60;;;21.00;94.40;;;;;;5046883;28;20032;-43
2022/08/09 09:13:59;;;;;;;0.90;0.77;;;21.00;94.60;;;;;;5049090;28;20029;-43
2022/08/09 09:16:32;;;;;;;1.33;0.70;;;21.10;94.10;;;;;;5047743;28;20122;-44
2022/08/09 09:19:03;;;;;;;1.02;0.80;;;21.10;93.60;;;;;;5048257;28;20033;-43
2022/08/09 09:21:29;;;;;;;1.33;0.70;;;21.20;93.40;;;;;;5047855;28;20384;-43
2022/08/09 09:23:54;;;;;;;1.20;0.68;;;21.20;93.30;;;;;;5047589;28;20164;-43
2022/08/09 09:26:22;;;;;;;1.92;0.80;;;21.30;93.00;;;;;;5048260;28;20021;-42
2022/08/09 09:28:48;;;;;;;1.00;0.50;;;21.30;92.70;;;;;;5048158;28;20116;-44
2022/08/09 09:31:16;;;;;;;1.67;1.25;;;21.30;92.80;;;;;;5047424;28;20025;-44
2022/08/09 09:33:42;;;;;;;1.00;0.75;;;21.40;92.90;;;;;;5048767;28;20033;-44
2022/08/09 09:36:10;;;;;;;1.67;0.65;;;21.40;92.80;;;;;;5048261;28;20368;-42
2022/08/09 09:38:56;;;;;;;0.70;0.60;;;21.40;92.50;;;;;;5047499;28;20116;-43
2022/08/09 09:41:22;;;;;;;0.80;0.77;;;21.50;92.40;;;;;;5048386;28;20021;-43
2022/08/09 09:43:51;;;;;;;0.73;0.70;;;21.50;92.30;;;;;;5047776;28;20079;-43
2022/08/09 09:46:17;;;;;;;1.70;0.85;;;21.60;92.40;;;;;;5047755;28;20083;-43
2022/08/09 09:49:04;;;;;;;2.20;0.80;;;21.70;92.00;;;;;;5048349;28;20021;-42
2022/08/09 09:51:34;;;;;;;2.67;0.60;;;21.70;91.60;;;;;;5047993;28;20036;-43
2022/08/09 09:54:08;;;;;;;0.98;0.70;;;21.70;91.80;;;;;;5047661;28;20059;-44
2022/08/09 09:56:36;;;;;;;1.25;0.63;;;21.80;91.70;;;;;;5047253;28;20037;-44
2022/08/09 09:59:02;;;;;;;1.30;0.90;;;21.70;91.30;;;;;;5046384;28;20163;-43
2022/08/09 10:01:28;;;;;;;0.90;0.70;;;21.80;91.50;;;;;;5046985;28;20128;-43
2022/08/09 10:03:54;;;;;;;0.63;0.50;;;21.80;91.40;;;;;;5047831;28;20450;-43
2022/08/09 10:06:20;;;;;;;0.55;0.50;;;21.90;91.50;;;;;;5047744;28;20017;-43
2022/08/09 10:08:49;;;;;;;0.80;0.50;;;21.90;91.50;;;;;;5047144;28;20473;-43
2022/08/09 10:11:23;;;;;;;0.90;0.60;;;22.00;91.40;;;;;;5045527;28;20020;-43
2022/08/09 10:13:50;;;;;;;0.75;0.47;;;22.00;91.30;;;;;;5042942;28;20021;-43
2022/08/09 10:16:29;;;;;;;1.10;0.60;;;22.10;91.30;;;;;;5047135;28;20020;-43
2022/08/09 10:18:57;;;;;;;0.80;0.47;;;22.10;91.00;;;;;;5043863;28;20020;-43
2022/08/09 10:21:24;;;;;;;0.82;0.40;;;22.20;91.00;;;;;;5046582;28;20086;-43
2022/08/09 10:23:50;;;;;;;0.50;0.50;;;22.20;90.90;;;;;;5047253;28;20029;-43
2022/08/09 10:26:16;;;;;;;2.15;0.95;;;22.30;90.90;;;;;;5046997;28;20107;-43
2022/08/09 10:28:43;;;;;;;1.17;0.60;;;22.30;90.90;;;;;;5046266;28;20047;-43
2022/08/09 10:31:11;;;;;;;0.55;0.35;;;22.30;90.70;;;;;;5047350;28;20039;-43
2022/08/09 10:33:37;;;;;;;0.57;0.43;;;22.30;90.70;;;;;;5047105;28;20102;-43
2022/08/09 10:36:04;;;;;;;0.73;0.50;;;22.30;90.60;;;;;;5046666;28;20033;-43
2022/08/09 10:38:30;;;;;;;0.63;0.50;;;22.40;90.40;;;;;;5046840;28;20659;-43
2022/08/09 10:40:56;;;;;;;1.33;0.70;;;22.40;90.20;;;;;;5046000;28;20078;-44
2022/08/09 10:43:22;;;;;;;0.68;0.43;;;22.40;90.20;;;;;;5047202;28;20026;-44
2022/08/09 10:45:48;;;;;;;0.95;0.40;;;22.50;90.20;;;;;;5046559;28;20075;-44
2022/08/09 10:48:40;;;;;;;1.58;0.70;;;22.50;89.90;;;;;;5046322;28;20025;-43
2022/08/09 10:51:20;;;;;;;1.30;0.75;;;22.60;89.20;;;;;;5044200;28;20087;-43
2022/08/09 10:54:06;;;;;;;0.93;0.50;;;22.70;88.90;;;;;;5046000;28;20517;-43
2022/08/09 10:56:37;;;;;;;0.77;0.43;;;22.70;89.40;;;;;;5045405;28;20044;-43
2022/08/09 10:59:21;;;;;;;0.82;0.77;;;22.70;88.60;;;;;;5046355;28;20488;-44
2022/08/09 11:01:48;;;;;;;0.43;0.40;;;22.80;88.10;;;;;;5046081;28;20057;-43
2022/08/09 11:04:22;;;;;;;0.63;0.40;;;22.90;88.00;;;;;;5045964;28;20036;-43
2022/08/09 11:07:09;;;;;;;1.25;0.50;;;22.90;88.10;;;;;;5046255;28;20111;-43
2022/08/09 11:09:37;;;;;;;1.33;0.60;;;22.90;87.70;;;;;;5040871;28;20040;-43
2022/08/09 11:12:14;;;;;;;1.63;0.70;;;23.00;86.50;;;;;;5046848;28;20132;-43
2022/08/09 11:14:47;;;;;;;0.95;0.60;;;23.00;86.20;;;;;;5045565;28;20131;-43
2022/08/09 11:17:13;;;;;;;0.45;0.45;;;23.00;86.20;;;;;;5045629;28;20025;-43
2022/08/09 11:20:00;;;;;;;0.45;0.40;;;23.10;86.40;;;;;;5045856;28;20051;-43
2022/08/09 11:22:43;;;;;;;3.53;0.70;;;23.20;85.20;;;;;;5045740;28;20459;-44
2022/08/09 11:25:09;;;;;;;0.40;0.40;;;23.20;85.10;;;;;;5045600;28;20036;-43
2022/08/09 11:27:43;;;;;;;0.90;0.50;;;23.20;84.30;;;;;;5046478;28;20025;-44
2022/08/09 11:30:11;;;;;;;1.40;0.60;;;23.30;84.10;;;;;;5045132;28;20051;-44
2022/08/09 11:32:53;;;;;;;0.80;0.55;;;23.40;83.70;;;;;;5046215;28;20064;-43
2022/08/09 11:35:21;;;;;;;;;;;23.40;83.90;;;;;;5046703;28;20055;-43
2022/08/09 11:37:49;;;;;;;0.82;0.50;;;23.40;83.40;;;;;;5045483;28;19918;-43
2022/08/09 11:40:25;;;;;;;1.27;0.40;;;23.40;83.10;;;;;;5045949;28;20423;-43
2022/08/09 11:42:53;;;;;;;0.57;0.45;;;23.50;83.60;;;;;;5045893;28;20025;-43
2022/08/09 11:45:28;;;;;;;0.45;0.43;;;23.50;82.60;;;;;;5045722;28;20033;-43
2022/08/09 11:47:59;;;;;;;0.57;0.40;;;23.60;82.70;;;;;;5045165;28;20060;-43
2022/08/09 11:50:25;;;;;;;1.00;0.30;;;23.70;82.80;;;;;;5045355;28;20104;-43
2022/08/09 11:53:01;;;;;;;0.73;0.60;;;23.70;82.80;;;;;;5044721;28;20120;-43
2022/08/09 11:55:38;;;;;;;1.73;0.50;;;23.80;81.30;;;;;;5045767;28;20453;-43
2022/08/09 11:58:12;;;;;;;1.17;0.50;;;23.80;80.30;;;;;;5045262;28;20484;-43
2022/08/09 12:00:46;;;;;;;0.47;0.30;;;23.80;79.90;;;;;;5045079;28;20040;-44
2022/08/09 12:03:15;;;;;;;0.88;0.47;;;23.90;80.10;;;;;;5045652;28;20053;-44
2022/08/09 12:05:41;;;;;;;1.45;0.85;;;23.90;80.40;;;;;;5044273;28;20503;-44
2022/08/09 12:08:08;;;;;;;1.20;0.50;;;24.00;79.70;;;;;;5045734;28;20036;-43
2022/08/09 12:10:35;;;;;;;0.35;0.35;;;24.00;79.70;;;;;;5044856;28;20029;-43
2022/08/09 12:13:01;;;;;;;0.75;0.40;;;24.10;79.40;;;;;;5044822;28;20049;-44
2022/08/09 12:15:27;;;;;;;1.15;0.40;;;24.10;79.50;;;;;;5045655;28;20076;-43
2022/08/09 12:17:53;;;;;;;0.77;0.30;;;24.20;79.30;;;;;;5045343;28;20017;-44
2022/08/09 12:20:24;;;;;;;0.40;0.40;;;24.20;79.20;;;;;;5045167;28;20421;-43
2022/08/09 12:22:55;;;;;;;0.68;0.40;;;24.20;79.40;;;;;;5044378;28;20021;-44
2022/08/09 12:25:21;;;;;;;1.95;0.65;;;24.20;77.10;;;;;;5045643;28;20037;-43
2022/08/09 12:27:47;;;;;;;1.08;0.38;;;24.30;77.40;;;;;;5044543;28;20025;-44
2022/08/09 12:30:13;;;;;;;2.22;0.45;;;24.30;77.80;;;;;;5043026;28;20029;-44
2022/08/09 12:32:39;;;;;;;0.98;0.40;;;24.40;78.10;;;;;;5044121;28;20027;-43
2022/08/09 12:35:05;;;;;;;0.90;0.45;;;24.40;78.50;;;;;;5044309;28;20036;-44
2022/08/09 12:37:32;;;;;;;0.45;0.45;;;24.40;77.60;;;;;;5045012;28;20021;-43
2022/08/09 12:40:08;;;;;;;2.60;0.50;;;24.40;77.40;;;;;;5045087;28;20036;-43
2022/08/09 12:42:35;;;;;;;0.68;0.50;;;24.50;77.70;;;;;;5043884;28;20547;-43
2022/08/09 12:45:03;;;;;;;2.08;0.50;;;24.50;78.00;;;;;;5045040;28;20045;-43
2022/08/09 12:47:28;;;;;;;0.85;0.38;;;24.60;78.30;;;;;;5043983;28;20538;-43
2022/08/09 12:52:41;;;;;;;0.40;0.22;;;24.70;77.90;;;;;;5045246;28;20032;-44
2022/08/09 12:55:09;;;;;;;0.35;0.30;;;24.80;78.00;;;;;;5044183;28;20110;-44